Nautilus — OUYX2 — position and weather

sailwx.info

Track history (hours):
 
Tides and Currents Weather Stations Pressure Air Temp Water Temp Dewpoint Dewpoint Depression Visibility Wind Speed Wind Dir Waves Ship Positions

Nautilus

Last reported at 2016-Sep-28 01:33 UTC. Time now 2016-Sep-28 23:56 UTC.
Position N 56°05' E 011°07'.

Length 120 m; draft 5 m.

Type: Ship. MMSI: 219425000.

Date/timePositionNaut miles runAvg speedWind from/ knotsBaromVisibWave heightAir tempDewpointWater temp
2016-Sep-28 01:33N 56°05' E 011°07'56 9.4
2016-Sep-27 19:33N 55°51' E 012°44'16 3.1
2016-Sep-27 14:32N 55°38' E 013°01'0 0.0
2016-Sep-27 13:32N 55°38' E 013°01'0 0.0
2016-Sep-27 10:32N 55°38' E 013°01'80 2.5
2016-Sep-26 02:33N 56°48' E 011°50'1211.8
2016-Sep-26 01:33N 56°59' E 011°43'1111.2
2016-Sep-26 00:33N 57°10' E 011°39'3010.1
2016-Sep-25 21:33N 57°40' E 011°47'4 0.9
2016-Sep-25 17:28N 57°41' E 011°53'0 0.0
2016-Sep-25 16:31N 57°41' E 011°53'0 0.0
2016-Sep-25 15:31N 57°41' E 011°53'0 0.0
2016-Sep-25 14:31N 57°41' E 011°53'0 0.0
2016-Sep-25 12:31N 57°41' E 011°53'0 0.0
2016-Sep-25 11:31N 57°41' E 011°53'0 0.0
2016-Sep-25 10:31N 57°41' E 011°53'0 0.0
2016-Sep-25 09:31N 57°41' E 011°53'0 0.0
2016-Sep-25 07:31N 57°41' E 011°53'0 0.0
2016-Sep-25 04:33N 57°41' E 011°53'31 7.7
2016-Sep-25 00:33N 57°11' E 011°55'17 8.4
2016-Sep-24 22:33N 56°55' E 012°05'9 8.7
2016-Sep-24 21:33N 56°46' E 012°09'17 8.6
2016-Sep-24 19:33N 56°30' E 012°18'8 8.3
2016-Sep-24 18:33N 56°22' E 012°22'9 9.0
2016-Sep-24 17:33N 56°13' E 012°28'10 9.6
2016-Sep-24 16:33N 56°05' E 012°36'19 9.5
2016-Sep-24 14:33N 55°47' E 012°48'15 7.5
2016-Sep-24 12:33N 55°32' E 012°46'16 7.8
2016-Sep-24 10:33N 55°17' E 012°48'9 8.9
2016-Sep-24 09:33N 55°16' E 013°04'52 8.6
2016-Sep-24 03:33N 55°26' E 014°33'10 9.7
2016-Sep-24 02:33N 55°31' E 014°48'9 9.4
2016-Sep-24 01:33N 55°35' E 015°03'10 9.6
2016-Sep-24 00:33N 55°39' E 015°18'  
2016-Sep-19 19:33N 58°39' E 016°23'4 4.3
2016-Sep-19 18:33N 58°37' E 016°15'0 0.0
2016-Sep-19 16:27N 58°37' E 016°15'0 0.0
2016-Sep-19 14:33N 58°37' E 016°15'0 0.0
2016-Sep-19 13:33N 58°37' E 016°15'0 0.0
2016-Sep-19 12:33N 58°37' E 016°15'0 0.0
2016-Sep-19 11:33N 58°37' E 016°15'0 0.0
2016-Sep-19 09:33N 58°37' E 016°15'1 0.3
2016-Sep-19 07:33N 58°37' E 016°16'1010.4
2016-Sep-19 06:33N 58°38' E 016°36'3410.4
2016-Sep-19 03:19N 58°38' E 017°41'57 7.3
2016-Sep-18 19:30N 59°29' E 016°52'17 1.9
2016-Sep-18 10:33N 59°25' E 017°25'1312.3
2016-Sep-18 09:32N 59°13' E 017°37'  
Track history (hours):
 
Tides and Currents Weather Stations Pressure Air Temp Water Temp Dewpoint Dewpoint Depression Visibility Wind Speed Wind Dir Waves Ship Positions

Nautilus

Last reported at 2016-Sep-28 01:33 UTC. Time now 2016-Sep-28 23:56 UTC.
Position N 56°05' E 011°07'.

Length 120 m; draft 5 m.

Type: Ship. MMSI: 219425000.

Date/timePositionNaut miles runAvg speedWind from/ knotsBaromVisibWave heightAir tempDewpointWater temp
2016-Sep-28 01:33N 56°05' E 011°07'56 9.4
2016-Sep-27 19:33N 55°51' E 012°44'16 3.1
2016-Sep-27 14:32N 55°38' E 013°01'0 0.0
2016-Sep-27 13:32N 55°38' E 013°01'0 0.0
2016-Sep-27 10:32N 55°38' E 013°01'80 2.5
2016-Sep-26 02:33N 56°48' E 011°50'1211.8
2016-Sep-26 01:33N 56°59' E 011°43'1111.2
2016-Sep-26 00:33N 57°10' E 011°39'3010.1
2016-Sep-25 21:33N 57°40' E 011°47'4 0.9
2016-Sep-25 17:28N 57°41' E 011°53'0 0.0
2016-Sep-25 16:31N 57°41' E 011°53'0 0.0
2016-Sep-25 15:31N 57°41' E 011°53'0 0.0
2016-Sep-25 14:31N 57°41' E 011°53'0 0.0
2016-Sep-25 12:31N 57°41' E 011°53'0 0.0
2016-Sep-25 11:31N 57°41' E 011°53'0 0.0
2016-Sep-25 10:31N 57°41' E 011°53'0 0.0
2016-Sep-25 09:31N 57°41' E 011°53'0 0.0
2016-Sep-25 07:31N 57°41' E 011°53'0 0.0
2016-Sep-25 04:33N 57°41' E 011°53'31 7.7
2016-Sep-25 00:33N 57°11' E 011°55'17 8.4
2016-Sep-24 22:33N 56°55' E 012°05'9 8.7
2016-Sep-24 21:33N 56°46' E 012°09'17 8.6
2016-Sep-24 19:33N 56°30' E 012°18'8 8.3
2016-Sep-24 18:33N 56°22' E 012°22'9 9.0
2016-Sep-24 17:33N 56°13' E 012°28'10 9.6
2016-Sep-24 16:33N 56°05' E 012°36'19 9.5
2016-Sep-24 14:33N 55°47' E 012°48'15 7.5
2016-Sep-24 12:33N 55°32' E 012°46'16 7.8
2016-Sep-24 10:33N 55°17' E 012°48'9 8.9
2016-Sep-24 09:33N 55°16' E 013°04'52 8.6
2016-Sep-24 03:33N 55°26' E 014°33'10 9.7
2016-Sep-24 02:33N 55°31' E 014°48'9 9.4
2016-Sep-24 01:33N 55°35' E 015°03'10 9.6
2016-Sep-24 00:33N 55°39' E 015°18'  
2016-Sep-19 19:33N 58°39' E 016°23'4 4.3
2016-Sep-19 18:33N 58°37' E 016°15'0 0.0
2016-Sep-19 16:27N 58°37' E 016°15'0 0.0
2016-Sep-19 14:33N 58°37' E 016°15'0 0.0
2016-Sep-19 13:33N 58°37' E 016°15'0 0.0
2016-Sep-19 12:33N 58°37' E 016°15'0 0.0
2016-Sep-19 11:33N 58°37' E 016°15'0 0.0
2016-Sep-19 09:33N 58°37' E 016°15'1 0.3
2016-Sep-19 07:33N 58°37' E 016°16'1010.4
2016-Sep-19 06:33N 58°38' E 016°36'3410.4
2016-Sep-19 03:19N 58°38' E 017°41'57 7.3
2016-Sep-18 19:30N 59°29' E 016°52'17 1.9
2016-Sep-18 10:33N 59°25' E 017°25'1312.3
2016-Sep-18 09:32N 59°13' E 017°37'  

Dump ship's entire track history